createdAt,value
2019-01-08T00:00:40.483Z,13.80
2019-01-08T00:01:40.491Z,13.20
2019-01-08T00:02:40.456Z,13.00
2019-01-08T00:03:40.456Z,15.20
2019-01-08T00:04:40.435Z,13.30
2019-01-08T00:05:40.415Z,14.00
2019-01-08T00:06:40.432Z,14.00
2019-01-08T00:07:40.399Z,14.20
2019-01-08T00:08:40.402Z,13.70
2019-01-08T00:09:40.370Z,14.30
2019-01-08T00:10:40.359Z,14.40
2019-01-08T00:11:40.376Z,14.40
2019-01-08T00:12:40.348Z,14.30
2019-01-08T00:13:40.336Z,12.30
2019-01-08T00:14:40.333Z,14.20
2019-01-08T00:15:40.308Z,12.10
2019-01-08T00:16:40.316Z,14.30
2019-01-08T00:17:40.284Z,12.80
2019-01-08T00:18:40.283Z,14.10
2019-01-08T00:19:40.270Z,13.30
2019-01-08T00:20:40.306Z,13.70
2019-01-08T00:21:40.264Z,14.40
2019-01-08T00:22:40.222Z,14.40
2019-01-08T00:23:40.222Z,14.60
2019-01-08T00:24:40.203Z,12.90
2019-01-08T00:25:40.203Z,13.50
2019-01-08T00:26:40.206Z,14.20
2019-01-08T00:27:40.171Z,12.20
2019-01-08T00:28:43.343Z,12.20
2019-01-08T00:29:40.157Z,12.60
2019-01-08T00:30:40.133Z,12.90
2019-01-08T00:31:40.155Z,15.60
2019-01-08T00:32:40.129Z,12.20
2019-01-08T00:33:40.107Z,13.70
2019-01-08T00:34:40.090Z,12.30
2019-01-08T00:35:40.076Z,11.40
2019-01-08T00:36:40.075Z,12.80
2019-01-08T00:37:40.078Z,12.00
2019-01-08T00:38:40.045Z,12.00
2019-01-08T00:39:40.035Z,13.20
2019-01-08T00:40:40.027Z,13.20
2019-01-08T00:41:40.031Z,12.70
2019-01-08T00:42:40.019Z,12.30
2019-01-08T00:43:40.004Z,12.00
2019-01-08T00:44:39.976Z,12.00
2019-01-08T00:45:39.970Z,12.10
2019-01-08T00:46:39.963Z,11.30
2019-01-08T00:47:39.969Z,12.90
2019-01-08T00:48:39.936Z,10.40
2019-01-08T00:49:39.936Z,9.90
2019-01-08T00:50:39.911Z,10.90
2019-01-08T00:51:39.903Z,11.10
2019-01-08T00:52:39.901Z,9.90
2019-01-08T00:53:39.876Z,9.90
2019-01-08T00:54:39.880Z,11.00
2019-01-08T00:55:39.858Z,11.80
2019-01-08T00:56:39.841Z,10.60
2019-01-08T00:57:39.859Z,10.90
2019-01-08T00:58:39.818Z,9.60
2019-01-08T00:59:39.802Z,10.10
2019-01-08T01:00:39.789Z,10.80
2019-01-08T01:01:39.792Z,10.10
2019-01-08T01:02:39.801Z,10.80
2019-01-08T01:03:39.766Z,9.20
2019-01-08T01:04:39.752Z,10.30
2019-01-08T01:05:39.832Z,9.60
2019-01-08T01:06:39.751Z,9.40
2019-01-08T01:07:39.736Z,9.60
2019-01-08T01:08:39.716Z,8.60
2019-01-08T01:09:39.705Z,9.70
2019-01-08T01:10:39.691Z,9.50
2019-01-08T01:11:39.676Z,10.10
2019-01-08T01:12:39.691Z,8.30
2019-01-08T01:13:39.646Z,10.20
2019-01-08T01:14:39.643Z,9.50
2019-01-08T01:15:39.630Z,7.80
2019-01-08T01:16:39.620Z,10.40
2019-01-08T01:17:39.611Z,7.90
2019-01-08T01:18:39.625Z,8.50
2019-01-08T01:19:39.587Z,9.00
2019-01-08T01:20:39.567Z,8.70
2019-01-08T01:21:39.564Z,8.00
2019-01-08T01:22:39.548Z,8.10
2019-01-08T01:23:39.558Z,9.10
2019-01-08T01:24:39.537Z,7.80
2019-01-08T01:25:39.522Z,7.70
2019-01-08T01:26:39.517Z,8.20
2019-01-08T01:27:39.502Z,8.70
2019-01-08T01:28:39.505Z,8.20
2019-01-08T01:29:39.468Z,7.70
2019-01-08T01:30:39.453Z,8.50
2019-01-08T01:31:39.449Z,8.10
2019-01-08T01:32:39.436Z,7.20
2019-01-08T01:33:39.439Z,8.10
2019-01-08T01:34:39.418Z,7.20
2019-01-08T01:35:39.414Z,6.40
2019-01-08T01:36:39.387Z,6.30
2019-01-08T01:37:39.384Z,7.20
2019-01-08T01:38:39.421Z,8.00
2019-01-08T01:39:39.375Z,7.40
2019-01-08T01:40:39.350Z,6.70
2019-01-08T01:41:39.344Z,6.60
2019-01-08T01:42:39.323Z,7.10
2019-01-08T01:43:39.332Z,6.60
2019-01-08T01:44:39.310Z,8.40
2019-01-08T01:45:39.310Z,6.90
2019-01-08T01:46:39.299Z,7.50
2019-01-08T01:47:39.283Z,7.30
2019-01-08T01:48:39.279Z,7.90
2019-01-08T01:49:39.243Z,6.70
2019-01-08T01:50:39.240Z,7.90
2019-01-08T01:51:39.223Z,6.80
2019-01-08T01:52:39.211Z,6.90
2019-01-08T01:53:39.244Z,7.30
2019-01-08T01:54:39.223Z,6.30
2019-01-08T01:55:39.185Z,6.80
2019-01-08T01:56:39.169Z,7.00
2019-01-08T01:57:39.169Z,7.60
2019-01-08T01:58:39.181Z,7.70
2019-01-08T01:59:39.142Z,6.60
2019-01-08T02:00:39.121Z,6.90
2019-01-08T02:01:39.113Z,8.00
2019-01-08T02:02:39.106Z,7.60
2019-01-08T02:03:39.101Z,7.40
2019-01-08T02:04:39.095Z,6.50
2019-01-08T02:05:39.061Z,8.00
2019-01-08T02:06:39.054Z,7.10
2019-01-08T02:07:39.045Z,7.00
2019-01-08T02:08:39.040Z,6.90
2019-01-08T02:09:39.040Z,6.80
2019-01-08T02:10:39.013Z,6.70
2019-01-08T02:11:38.996Z,6.60
2019-01-08T02:12:38.978Z,8.20
2019-01-08T02:13:38.989Z,6.50
2019-01-08T02:14:38.984Z,6.50
2019-01-08T02:15:38.988Z,9.10
2019-01-08T02:16:38.958Z,6.30
2019-01-08T02:17:38.932Z,7.10
2019-01-08T02:18:38.913Z,6.90
2019-01-08T02:19:38.922Z,6.50
2019-01-08T02:20:38.892Z,7.20
2019-01-08T02:21:38.878Z,6.70
2019-01-08T02:22:38.883Z,6.20
2019-01-08T02:23:38.867Z,6.50
2019-01-08T02:24:38.862Z,8.00
2019-01-08T02:25:38.860Z,6.60
2019-01-08T02:26:38.835Z,7.20
2019-01-08T02:27:38.814Z,7.20
2019-01-08T02:28:38.810Z,7.10
2019-01-08T02:29:38.810Z,7.40
2019-01-08T02:30:38.782Z,7.10
2019-01-08T02:31:38.770Z,7.70
2019-01-08T02:32:38.766Z,6.10
2019-01-08T02:33:38.750Z,7.00
2019-01-08T02:34:38.751Z,7.20
2019-01-08T02:35:38.732Z,7.10
2019-01-08T02:36:38.707Z,7.70
2019-01-08T02:37:38.716Z,6.70
2019-01-08T02:38:38.690Z,7.30
2019-01-08T02:39:38.713Z,7.30
2019-01-08T02:40:38.661Z,7.60
2019-01-08T02:41:38.659Z,7.20
2019-01-08T02:42:38.644Z,7.20
2019-01-08T02:43:38.638Z,6.80
2019-01-08T02:44:38.687Z,9.60
2019-01-08T02:45:38.622Z,8.00
2019-01-08T02:46:38.685Z,6.70
2019-01-08T02:47:38.608Z,6.90
2019-01-08T02:48:38.588Z,6.50
2019-01-08T02:49:38.568Z,8.80
2019-01-08T02:50:38.582Z,8.70
2019-01-08T02:51:38.540Z,7.30
2019-01-08T02:52:38.541Z,8.50
2019-01-08T02:53:38.527Z,6.60
2019-01-08T02:54:38.610Z,8.20
2019-01-08T02:55:38.516Z,8.60
2019-01-08T02:56:38.492Z,9.20
2019-01-08T02:57:38.480Z,8.50
2019-01-08T02:58:38.460Z,8.50
2019-01-08T02:59:38.457Z,9.90
2019-01-08T03:00:38.462Z,8.20
2019-01-08T03:01:38.437Z,8.50
2019-01-08T03:02:38.429Z,11.70
2019-01-08T03:03:38.420Z,9.50
2019-01-08T03:04:38.401Z,9.50
2019-01-08T03:05:38.407Z,8.80
2019-01-08T03:06:38.379Z,9.00
2019-01-08T03:07:38.379Z,8.90
2019-01-08T03:08:38.355Z,9.80
2019-01-08T03:09:38.339Z,11.70
2019-01-08T03:10:38.350Z,10.40
2019-01-08T03:11:38.317Z,9.70
2019-01-08T03:12:38.315Z,9.30
2019-01-08T03:13:38.312Z,8.20
2019-01-08T03:14:38.290Z,9.50
2019-01-08T03:15:38.301Z,8.70
2019-01-08T03:16:38.268Z,9.60
2019-01-08T03:17:38.297Z,10.60
2019-01-08T03:18:38.249Z,10.30
2019-01-08T03:19:38.240Z,9.60
2019-01-08T03:20:38.252Z,10.20
2019-01-08T03:21:38.213Z,14.30
2019-01-08T03:22:38.206Z,11.00
2019-01-08T03:23:38.190Z,10.70
2019-01-08T03:24:38.181Z,10.70
2019-01-08T03:25:38.186Z,9.40
2019-01-08T03:26:38.152Z,10.10
2019-01-08T03:27:38.196Z,13.60
2019-01-08T03:28:38.162Z,10.60
2019-01-08T03:29:38.126Z,9.50
2019-01-08T03:30:38.149Z,9.00
2019-01-08T03:31:38.124Z,9.20
2019-01-08T03:32:38.091Z,9.00
2019-01-08T03:33:38.079Z,9.90
2019-01-08T03:34:38.066Z,11.30
2019-01-08T03:35:38.054Z,11.50
2019-01-08T03:36:38.068Z,10.40
2019-01-08T03:37:38.042Z,10.10
2019-01-08T03:38:38.021Z,9.10
2019-01-08T03:39:38.021Z,12.10
2019-01-08T03:40:38.006Z,10.80
2019-01-08T03:41:38.009Z,12.80
2019-01-08T03:42:37.977Z,13.00
2019-01-08T03:43:37.964Z,11.10
2019-01-08T03:44:37.951Z,11.10
2019-01-08T03:45:37.938Z,11.80
2019-01-08T03:46:37.970Z,12.60
2019-01-08T03:47:37.924Z,13.30
2019-01-08T03:48:37.905Z,12.40
2019-01-08T03:49:37.904Z,10.70
2019-01-08T03:50:37.878Z,10.50
2019-01-08T03:51:37.968Z,12.90
2019-01-08T03:52:37.926Z,12.40
2019-01-08T03:53:37.866Z,13.00
2019-01-08T03:54:37.827Z,10.80
2019-01-08T03:55:37.834Z,11.60
2019-01-08T03:56:37.840Z,12.10
2019-01-08T03:57:37.844Z,13.70
2019-01-08T03:58:37.793Z,11.40
2019-01-08T03:59:41.968Z,12.10
2019-01-08T04:00:37.761Z,9.30
2019-01-08T04:01:37.784Z,12.00
2019-01-08T04:02:37.758Z,10.50
2019-01-08T04:03:37.743Z,11.50
2019-01-08T04:04:37.729Z,10.00
2019-01-08T04:05:37.711Z,12.10
2019-01-08T04:06:37.707Z,9.60
2019-01-08T04:07:37.689Z,11.50
2019-01-08T04:08:37.682Z,9.90
2019-01-08T04:09:37.671Z,10.30
2019-01-08T04:10:37.667Z,12.20
2019-01-08T04:11:37.681Z,8.70
2019-01-08T04:12:37.641Z,10.10
2019-01-08T04:13:37.635Z,12.70
2019-01-08T04:14:37.611Z,8.40
2019-01-08T04:15:37.609Z,10.70
2019-01-08T04:16:37.598Z,9.60
2019-01-08T04:17:37.614Z,9.80
2019-01-08T04:18:37.563Z,9.90
2019-01-08T04:19:37.565Z,9.10
2019-01-08T04:20:37.594Z,10.50
2019-01-08T04:21:37.533Z,8.40
2019-01-08T04:22:37.551Z,11.40
2019-01-08T04:23:37.519Z,7.10
2019-01-08T04:24:37.507Z,10.50
2019-01-08T04:25:37.485Z,10.10
2019-01-08T04:26:37.481Z,9.60
2019-01-08T04:27:37.491Z,8.00
2019-01-08T04:28:37.468Z,10.30
2019-01-08T04:29:37.439Z,9.10
2019-01-08T04:30:37.427Z,10.30
2019-01-08T04:31:37.424Z,12.40
2019-01-08T04:32:37.425Z,11.10
2019-01-08T04:33:37.405Z,12.10
2019-01-08T04:34:37.386Z,10.70
2019-01-08T04:35:37.370Z,12.10
2019-01-08T04:36:37.368Z,11.50
2019-01-08T04:37:37.379Z,10.70
2019-01-08T04:38:37.393Z,11.20
2019-01-08T04:39:37.355Z,13.30
2019-01-08T04:40:37.318Z,9.80
2019-01-08T04:41:37.300Z,10.40
2019-01-08T04:42:37.316Z,12.50
2019-01-08T04:43:37.298Z,9.30
2019-01-08T04:44:37.275Z,10.30
2019-01-08T04:45:37.274Z,10.00
2019-01-08T04:46:37.246Z,11.00
2019-01-08T04:47:37.261Z,11.40
2019-01-08T04:48:37.258Z,8.70
2019-01-08T04:49:37.234Z,10.00
2019-01-08T04:50:37.218Z,11.30
2019-01-08T04:51:37.212Z,10.00
2019-01-08T04:52:37.302Z,10.10
2019-01-08T04:53:37.177Z,10.70
2019-01-08T04:54:37.176Z,11.80
2019-01-08T04:55:37.240Z,9.80
2019-01-08T04:56:37.154Z,11.10
2019-01-08T04:57:37.132Z,10.80
2019-01-08T04:58:37.146Z,12.10
2019-01-08T04:59:37.108Z,8.70
2019-01-08T05:00:37.108Z,11.70
2019-01-08T05:01:37.089Z,13.60
2019-01-08T05:02:37.081Z,13.40
2019-01-08T05:03:37.086Z,10.70
2019-01-08T05:04:37.046Z,10.40
2019-01-08T05:05:37.038Z,8.40
2019-01-08T05:06:37.042Z,11.60
2019-01-08T05:07:37.019Z,9.80
2019-01-08T05:08:37.027Z,10.40
2019-01-08T05:09:36.995Z,9.40
2019-01-08T05:10:36.986Z,9.80
2019-01-08T05:11:36.974Z,11.80
2019-01-08T05:12:36.970Z,13.10
2019-01-08T05:13:36.971Z,11.40
2019-01-08T05:14:36.940Z,11.50
2019-01-08T05:15:36.924Z,8.90
2019-01-08T05:16:36.914Z,9.60
2019-01-08T05:17:36.899Z,12.50
2019-01-08T05:18:36.971Z,10.00
2019-01-08T05:19:36.881Z,12.80
2019-01-08T05:20:36.877Z,9.80
2019-01-08T05:21:36.850Z,13.10
2019-01-08T05:22:36.843Z,9.20
2019-01-08T05:23:36.845Z,8.20
2019-01-08T05:24:36.830Z,11.10
2019-01-08T05:25:36.823Z,11.80
2019-01-08T05:26:36.793Z,12.00
2019-01-08T05:27:36.799Z,12.20
2019-01-08T05:28:36.805Z,11.10
2019-01-08T05:29:36.773Z,13.90
2019-01-08T05:30:36.751Z,13.20
2019-01-08T05:31:36.745Z,13.40
2019-01-08T05:32:36.726Z,12.70
2019-01-08T05:33:36.731Z,12.00
2019-01-08T05:34:36.717Z,13.10
2019-01-08T05:35:36.719Z,14.60
2019-01-08T05:36:36.684Z,14.70
2019-01-08T05:37:36.721Z,12.10
2019-01-08T05:38:36.693Z,14.70
2019-01-08T05:39:36.669Z,15.60
2019-01-08T05:40:36.645Z,13.20
2019-01-08T05:41:36.650Z,12.10
2019-01-08T05:42:36.615Z,13.70
2019-01-08T05:43:36.639Z,10.60
2019-01-08T05:44:36.618Z,12.10
2019-01-08T05:45:36.589Z,10.60
2019-01-08T05:46:36.582Z,11.90
2019-01-08T05:47:36.583Z,14.70
2019-01-08T05:48:36.569Z,13.50
2019-01-08T05:49:36.866Z,15.00
2019-01-08T05:50:36.567Z,16.90
2019-01-08T05:51:36.521Z,14.80
2019-01-08T05:52:36.530Z,16.00
2019-01-08T05:53:36.501Z,16.80
2019-01-08T05:54:36.508Z,14.70
2019-01-08T05:55:36.471Z,14.60
2019-01-08T05:56:36.465Z,14.00
2019-01-08T05:57:36.451Z,16.40
2019-01-08T05:58:36.441Z,13.00
2019-01-08T05:59:36.449Z,14.40
2019-01-08T06:00:36.422Z,14.70
2019-01-08T06:01:36.399Z,13.70
2019-01-08T06:02:36.400Z,15.10
2019-01-08T06:03:36.383Z,11.50
2019-01-08T06:04:36.398Z,13.40
2019-01-08T06:05:36.360Z,17.40
2019-01-08T06:06:36.369Z,17.90
2019-01-08T06:07:36.336Z,13.50
2019-01-08T06:08:36.332Z,15.60
2019-01-08T06:09:36.351Z,14.90
2019-01-08T06:10:36.309Z,14.30
2019-01-08T06:11:36.300Z,11.60
2019-01-08T06:12:36.277Z,16.40
2019-01-08T06:13:36.269Z,11.80
2019-01-08T06:14:36.930Z,13.40
2019-01-08T06:15:36.259Z,15.70
2019-01-08T06:16:36.235Z,15.30
2019-01-08T06:17:36.238Z,11.60
2019-01-08T06:18:36.209Z,13.90
2019-01-08T06:19:36.232Z,14.00
2019-01-08T06:20:36.252Z,13.50
2019-01-08T06:21:36.197Z,13.50
2019-01-08T06:22:36.180Z,15.70
2019-01-08T06:23:36.161Z,12.90
2019-01-08T06:24:36.184Z,13.30
2019-01-08T06:25:36.132Z,13.40
2019-01-08T06:26:36.126Z,16.20
2019-01-08T06:27:36.113Z,12.20
2019-01-08T06:28:36.107Z,12.90
2019-01-08T06:29:36.080Z,15.30
2019-01-08T06:30:36.102Z,12.20
2019-01-08T06:31:36.072Z,13.50
2019-01-08T06:32:36.070Z,14.00
2019-01-08T06:33:36.034Z,14.20
2019-01-08T06:34:36.035Z,15.20
2019-01-08T06:35:36.077Z,14.70
2019-01-08T06:36:36.029Z,15.90
2019-01-08T06:37:36.005Z,13.40
2019-01-08T06:38:35.987Z,12.80
2019-01-08T06:39:35.985Z,16.50
2019-01-08T06:40:35.979Z,16.60
2019-01-08T06:41:35.954Z,14.40
2019-01-08T06:42:35.952Z,15.30
2019-01-08T06:43:35.936Z,14.40
2019-01-08T06:44:35.926Z,11.40
2019-01-08T06:45:35.923Z,13.40
2019-01-08T06:46:42.948Z,13.50
2019-01-08T06:47:36.890Z,15.40
2019-01-08T06:48:35.874Z,16.30
2019-01-08T06:49:35.861Z,14.20
2019-01-08T06:50:35.868Z,14.60
2019-01-08T06:51:35.854Z,12.10
2019-01-08T06:52:35.827Z,16.30
2019-01-08T06:53:35.807Z,14.60
2019-01-08T06:54:35.814Z,11.60
2019-01-08T06:55:35.817Z,16.80
2019-01-08T06:56:35.799Z,15.00
2019-01-08T06:57:37.064Z,12.40
2019-01-08T06:58:35.780Z,15.30
2019-01-08T06:59:35.749Z,13.50
2019-01-08T07:00:35.762Z,15.40
2019-01-08T07:01:35.725Z,15.00
2019-01-08T07:02:35.733Z,15.80
2019-01-08T07:03:35.716Z,12.20
2019-01-08T07:04:35.689Z,13.60
2019-01-08T07:05:35.722Z,14.80
2019-01-08T07:06:35.673Z,12.20
2019-01-08T07:07:35.672Z,14.70
2019-01-08T07:08:35.689Z,10.80
2019-01-08T07:09:35.643Z,13.90
2019-01-08T07:10:35.631Z,14.40
2019-01-08T07:11:35.640Z,17.80
2019-01-08T07:12:35.690Z,14.50
2019-01-08T07:13:35.601Z,12.00
2019-01-08T07:14:35.581Z,7.30
2019-01-08T07:15:35.579Z,12.20
2019-01-08T07:16:35.590Z,13.30
2019-01-08T07:17:35.547Z,15.70
2019-01-08T07:18:35.544Z,10.90
2019-01-08T07:19:35.525Z,15.20
2019-01-08T07:20:35.523Z,18.20
2019-01-08T07:21:35.553Z,10.70
2019-01-08T07:22:35.488Z,15.70
2019-01-08T07:23:35.493Z,15.90
2019-01-08T07:24:35.471Z,13.50
2019-01-08T07:25:42.074Z,11.80
2019-01-08T07:26:36.479Z,13.50
2019-01-08T07:27:35.458Z,10.20
2019-01-08T07:28:35.433Z,11.30
2019-01-08T07:29:35.421Z,15.40
2019-01-08T07:30:41.518Z,11.80
2019-01-08T07:31:36.421Z,16.40
2019-01-08T07:32:35.395Z,15.90
2019-01-08T07:33:35.382Z,11.20
2019-01-08T07:34:35.357Z,15.20
2019-01-08T07:35:35.374Z,12.90
2019-01-08T07:36:35.359Z,14.90
2019-01-08T07:37:35.327Z,10.60
2019-01-08T07:38:35.332Z,13.50
2019-01-08T07:39:35.310Z,11.10
2019-01-08T07:40:35.336Z,13.00
2019-01-08T07:41:35.290Z,12.90
2019-01-08T07:42:35.276Z,11.70
2019-01-08T07:43:35.255Z,13.60
2019-01-08T07:44:35.248Z,16.00
2019-01-08T07:45:35.233Z,14.30
2019-01-08T07:46:35.256Z,11.80
2019-01-08T07:47:35.206Z,11.20
2019-01-08T07:48:35.208Z,12.40
2019-01-08T07:49:35.183Z,9.90
2019-01-08T07:50:35.164Z,11.30
2019-01-08T07:51:35.178Z,16.60
2019-01-08T07:52:35.176Z,12.40
2019-01-08T07:53:35.156Z,12.80
2019-01-08T07:54:35.964Z,15.20
2019-01-08T07:55:35.122Z,11.30
2019-01-08T07:56:35.118Z,14.40
2019-01-08T07:57:35.119Z,12.50
2019-01-08T07:58:35.083Z,13.70
2019-01-08T07:59:35.078Z,15.70
2019-01-08T08:00:35.115Z,13.50
2019-01-08T08:01:35.052Z,11.40
2019-01-08T08:02:35.070Z,15.20
2019-01-08T08:03:35.035Z,12.90
2019-01-08T08:04:35.024Z,12.50
2019-01-08T08:05:35.004Z,10.60
2019-01-08T08:06:34.998Z,13.60
2019-01-08T08:07:35.009Z,12.80
2019-01-08T08:08:34.978Z,10.50
2019-01-08T08:09:34.980Z,13.80
2019-01-08T08:10:34.942Z,13.80
2019-01-08T08:11:34.943Z,12.50
2019-01-08T08:12:34.951Z,14.10
2019-01-08T08:13:34.935Z,13.50
2019-01-08T08:14:34.914Z,11.90
2019-01-08T08:15:34.901Z,17.90
2019-01-08T08:16:34.887Z,12.70
2019-01-08T08:17:34.892Z,12.10
2019-01-08T08:18:34.874Z,12.40
2019-01-08T08:19:34.899Z,13.40
2019-01-08T08:20:34.912Z,12.80
2019-01-08T08:21:34.827Z,10.70
2019-01-08T08:22:34.839Z,12.60
2019-01-08T08:23:34.810Z,13.20
2019-01-08T08:24:34.802Z,11.90
2019-01-08T08:25:34.787Z,10.80
2019-01-08T08:26:34.776Z,13.00
2019-01-08T08:27:34.807Z,9.60
2019-01-08T08:28:34.753Z,11.90
2019-01-08T08:29:34.749Z,12.40
2019-01-08T08:30:34.734Z,9.80
2019-01-08T08:31:34.823Z,8.50
2019-01-08T08:32:34.738Z,11.80
2019-01-08T08:33:34.683Z,12.70
2019-01-08T08:34:34.686Z,11.20
2019-01-08T08:35:34.665Z,10.40
2019-01-08T08:36:34.662Z,9.50
2019-01-08T08:37:34.645Z,11.30
2019-01-08T08:38:34.774Z,11.00
2019-01-08T08:39:34.681Z,10.40
2019-01-08T08:40:34.641Z,12.00
2019-01-08T08:41:34.601Z,10.00
2019-01-08T08:42:34.597Z,9.80
2019-01-08T08:43:34.599Z,9.10
2019-01-08T08:44:34.574Z,9.60
2019-01-08T08:45:34.558Z,12.70
2019-01-08T08:46:34.559Z,9.90
2019-01-08T08:47:34.539Z,7.50
2019-01-08T08:48:34.543Z,8.50
2019-01-08T08:49:34.509Z,9.40
2019-01-08T08:50:35.375Z,11.20
2019-01-08T08:51:34.489Z,8.70
2019-01-08T08:52:34.486Z,9.80
2019-01-08T08:53:34.478Z,9.10
2019-01-08T08:54:34.495Z,10.80
2019-01-08T08:55:34.460Z,11.70
2019-01-08T08:56:34.435Z,11.80
2019-01-08T08:57:34.428Z,11.60
2019-01-08T08:58:34.430Z,8.80
2019-01-08T08:59:34.408Z,10.80
2019-01-08T09:00:34.383Z,10.50
2019-01-08T09:01:34.378Z,7.20
2019-01-08T09:02:34.362Z,9.40
2019-01-08T09:03:34.370Z,15.90
2019-01-08T09:04:34.345Z,12.20
2019-01-08T09:05:34.340Z,9.70
2019-01-08T09:06:34.311Z,10.80
2019-01-08T09:07:34.333Z,10.40
2019-01-08T09:08:34.332Z,11.60
2019-01-08T09:09:34.302Z,10.90
2019-01-08T09:10:34.282Z,9.70
2019-01-08T09:11:34.273Z,10.80
2019-01-08T09:12:34.252Z,14.00
2019-01-08T09:13:34.265Z,10.20
2019-01-08T09:14:34.236Z,9.90
2019-01-08T09:15:34.220Z,11.90
2019-01-08T09:16:34.220Z,11.50
2019-01-08T09:17:34.199Z,10.70
2019-01-08T09:18:34.204Z,9.10
2019-01-08T09:19:34.180Z,12.70
2019-01-08T09:20:34.181Z,9.20
2019-01-08T09:21:34.163Z,10.80
2019-01-08T09:22:34.159Z,7.80
2019-01-08T09:23:34.150Z,8.50
2019-01-08T09:24:34.122Z,7.70
2019-01-08T09:25:34.116Z,11.60
2019-01-08T09:26:34.104Z,8.30
2019-01-08T09:27:34.107Z,9.20
2019-01-08T09:28:34.086Z,8.10
2019-01-08T09:29:34.067Z,11.50
2019-01-08T09:30:34.048Z,10.40
2019-01-08T09:31:34.053Z,8.90
2019-01-08T09:32:34.034Z,9.70
2019-01-08T09:33:34.022Z,10.10
2019-01-08T09:34:34.021Z,6.60
2019-01-08T09:35:33.993Z,9.20
2019-01-08T09:36:33.982Z,11.70
2019-01-08T09:37:33.989Z,9.00
2019-01-08T09:38:33.975Z,8.60
2019-01-08T09:39:34.011Z,8.90
2019-01-08T09:40:33.938Z,9.90
2019-01-08T09:41:33.927Z,7.50
2019-01-08T09:42:34.010Z,9.90
2019-01-08T09:43:33.915Z,8.40
2019-01-08T09:44:33.921Z,11.70
2019-01-08T09:45:33.883Z,13.00
2019-01-08T09:46:33.891Z,9.20
2019-01-08T09:47:33.859Z,9.60
2019-01-08T09:48:33.849Z,9.00
2019-01-08T09:49:33.854Z,7.70
2019-01-08T09:50:33.838Z,9.20
2019-01-08T09:51:33.829Z,7.20
2019-01-08T09:52:33.810Z,9.20
2019-01-08T09:53:33.799Z,11.90
2019-01-08T09:54:33.809Z,6.70
2019-01-08T09:55:33.775Z,9.30
2019-01-08T09:56:33.759Z,8.90
2019-01-08T09:57:33.766Z,9.40
2019-01-08T09:58:33.733Z,8.20
2019-01-08T09:59:35.566Z,8.50
2019-01-08T10:00:33.710Z,9.00
2019-01-08T10:01:33.725Z,9.40
2019-01-08T10:02:33.697Z,9.50
2019-01-08T10:03:33.690Z,10.10
2019-01-08T10:04:33.695Z,8.20
2019-01-08T10:05:33.663Z,8.60
2019-01-08T10:06:33.648Z,7.70
2019-01-08T10:07:33.635Z,11.60
2019-01-08T10:08:33.630Z,8.20
2019-01-08T10:09:33.633Z,8.10
2019-01-08T10:10:33.610Z,11.00
2019-01-08T10:11:33.595Z,9.70
2019-01-08T10:12:33.589Z,8.50
2019-01-08T10:13:33.565Z,6.50
2019-01-08T10:14:33.578Z,7.80
2019-01-08T10:15:33.563Z,9.00
2019-01-08T10:16:33.538Z,8.70
2019-01-08T10:17:33.525Z,7.30
2019-01-08T10:18:33.567Z,8.70
2019-01-08T10:19:33.535Z,9.10
2019-01-08T10:20:33.523Z,9.70
2019-01-08T10:21:33.501Z,8.40
2019-01-08T10:22:33.472Z,9.70
2019-01-08T10:23:33.450Z,7.80
2019-01-08T10:24:33.470Z,9.10
2019-01-08T10:25:33.435Z,10.70
2019-01-08T10:26:33.419Z,11.80
2019-01-08T10:27:33.416Z,6.80
2019-01-08T10:28:33.410Z,8.60
2019-01-08T10:29:33.409Z,9.90
2019-01-08T10:30:33.377Z,7.40
2019-01-08T10:31:33.371Z,9.70
2019-01-08T10:32:33.388Z,7.50
2019-01-08T10:33:33.346Z,6.50
2019-01-08T10:34:33.350Z,8.10
2019-01-08T10:35:33.336Z,6.20
2019-01-08T10:36:33.317Z,6.40
2019-01-08T10:37:33.316Z,9.70
2019-01-08T10:38:33.290Z,9.80
2019-01-08T10:39:33.321Z,8.70
2019-01-08T10:40:33.256Z,7.10
2019-01-08T10:41:33.263Z,10.70
2019-01-08T10:42:33.236Z,8.90
2019-01-08T10:43:33.253Z,8.30
2019-01-08T10:44:33.252Z,10.20
2019-01-08T10:45:34.524Z,7.90
2019-01-08T10:46:37.377Z,9.40
2019-01-08T10:47:33.187Z,9.10
2019-01-08T10:48:33.171Z,8.10
2019-01-08T10:49:33.187Z,11.00
2019-01-08T10:50:33.153Z,7.30
2019-01-08T10:51:33.137Z,9.30
2019-01-08T10:52:33.136Z,9.70
2019-01-08T10:53:33.118Z,5.90
2019-01-08T10:54:33.107Z,10.20
2019-01-08T10:55:33.123Z,6.20
2019-01-08T10:56:33.084Z,8.20
2019-01-08T10:57:33.064Z,8.90
2019-01-08T10:58:33.067Z,9.00
2019-01-08T10:59:33.048Z,11.50
2019-01-08T11:00:33.055Z,7.50
2019-01-08T11:01:40.302Z,7.00
2019-01-08T11:02:34.017Z,7.90
2019-01-08T11:03:33.038Z,9.20
2019-01-08T11:04:33.013Z,7.50
2019-01-08T11:05:33.000Z,7.20
2019-01-08T11:06:32.970Z,9.80
2019-01-08T11:07:33.010Z,6.70
2019-01-08T11:08:32.951Z,8.00
2019-01-08T11:09:32.947Z,8.30
2019-01-08T11:10:32.941Z,12.00
2019-01-08T11:11:34.361Z,12.60
2019-01-08T11:12:32.946Z,12.70
2019-01-08T11:13:32.916Z,8.70
2019-01-08T11:14:32.885Z,9.30
2019-01-08T11:15:32.925Z,5.40
2019-01-08T11:16:32.870Z,9.80
2019-01-08T11:17:32.879Z,11.50
2019-01-08T11:18:32.846Z,8.50
2019-01-08T11:19:32.825Z,9.20
2019-01-08T11:20:32.833Z,10.30
2019-01-08T11:21:32.801Z,9.20
2019-01-08T11:22:32.794Z,9.90
2019-01-08T11:23:32.786Z,6.40
2019-01-08T11:24:32.779Z,10.50
2019-01-08T11:25:32.803Z,7.80
2019-01-08T11:26:32.761Z,9.00
2019-01-08T11:27:32.732Z,8.00
2019-01-08T11:28:32.731Z,10.90
2019-01-08T11:29:32.723Z,14.00
2019-01-08T11:30:32.689Z,7.70
2019-01-08T11:31:32.702Z,8.90
2019-01-08T11:32:32.670Z,6.80
2019-01-08T11:33:32.675Z,7.30
2019-01-08T11:34:32.664Z,8.60
2019-01-08T11:35:32.648Z,9.70
2019-01-08T11:36:32.655Z,9.60
2019-01-08T11:37:32.626Z,7.90
2019-01-08T11:38:32.610Z,6.80
2019-01-08T11:39:32.651Z,8.60
2019-01-08T11:40:32.604Z,8.60
2019-01-08T11:41:32.605Z,8.40
2019-01-08T11:42:32.565Z,5.90
2019-01-08T11:43:32.590Z,5.60
2019-01-08T11:44:32.590Z,6.70
2019-01-08T11:45:32.557Z,6.60
2019-01-08T11:46:32.538Z,8.20
2019-01-08T11:47:32.513Z,5.90
2019-01-08T11:48:32.497Z,7.90
2019-01-08T11:49:32.483Z,7.20
2019-01-08T11:50:32.493Z,7.90
2019-01-08T11:51:32.488Z,6.80
2019-01-08T11:52:32.460Z,6.30
2019-01-08T11:53:32.445Z,6.40
2019-01-08T11:54:40.643Z,6.40
2019-01-08T11:55:33.425Z,5.40
2019-01-08T11:56:32.426Z,5.30
2019-01-08T11:57:32.416Z,5.90
2019-01-08T11:58:32.380Z,7.00
2019-01-08T11:59:32.376Z,6.70
2019-01-08T12:00:32.369Z,8.00
2019-01-08T12:01:32.384Z,5.20
2019-01-08T12:02:32.346Z,5.80
2019-01-08T12:03:32.322Z,8.40
2019-01-08T12:04:32.325Z,7.20
2019-01-08T12:05:32.309Z,7.50
2019-01-08T12:06:32.319Z,8.40
2019-01-08T12:07:32.285Z,7.90
2019-01-08T12:08:32.278Z,7.10
2019-01-08T12:09:32.263Z,7.10
2019-01-08T12:10:32.253Z,5.90
2019-01-08T12:11:32.263Z,7.90
2019-01-08T12:12:32.230Z,6.90
2019-01-08T12:13:32.216Z,5.60
2019-01-08T12:14:32.200Z,7.80
2019-01-08T12:15:32.183Z,8.50
2019-01-08T12:16:32.203Z,8.60
2019-01-08T12:17:32.182Z,5.30
2019-01-08T12:18:32.169Z,9.20
2019-01-08T12:19:32.152Z,6.40
2019-01-08T12:20:32.126Z,5.10
2019-01-08T12:21:32.136Z,5.60
2019-01-08T12:22:32.126Z,6.80
2019-01-08T12:23:32.114Z,6.70
2019-01-08T12:24:32.091Z,6.50
2019-01-08T12:25:32.094Z,7.30
2019-01-08T12:26:32.079Z,7.50
2019-01-08T12:27:32.060Z,4.50
2019-01-08T12:28:32.049Z,7.90
2019-01-08T12:29:32.036Z,6.20
2019-01-08T12:30:32.039Z,6.80
2019-01-08T12:31:32.005Z,8.00
2019-01-08T12:32:32.013Z,5.10
2019-01-08T12:33:31.989Z,5.00
2019-01-08T12:34:31.998Z,5.90
2019-01-08T12:35:31.967Z,4.10
2019-01-08T12:36:31.989Z,6.80
2019-01-08T12:37:31.971Z,7.80
2019-01-08T12:38:31.932Z,6.50
2019-01-08T12:39:31.929Z,5.40
2019-01-08T12:40:31.923Z,6.20
2019-01-08T12:41:31.917Z,5.60
2019-01-08T12:42:31.901Z,8.50
2019-01-08T12:43:31.878Z,11.90
2019-01-08T12:44:31.872Z,5.80
2019-01-08T12:45:31.859Z,7.20
2019-01-08T12:46:31.839Z,8.00
2019-01-08T12:47:31.849Z,7.40
2019-01-08T12:48:31.815Z,9.80
2019-01-08T12:49:31.817Z,10.00
2019-01-08T12:50:31.805Z,5.40
2019-01-08T12:51:31.804Z,6.10
2019-01-08T12:52:31.837Z,6.10
2019-01-08T12:53:31.796Z,4.20
2019-01-08T12:54:31.796Z,6.40
2019-01-08T12:55:31.743Z,6.70
2019-01-08T12:56:31.736Z,6.80
2019-01-08T12:57:31.764Z,4.30
2019-01-08T12:58:31.704Z,6.20
2019-01-08T12:59:31.703Z,6.50
2019-01-08T13:00:31.689Z,6.10
2019-01-08T13:01:31.670Z,7.40
2019-01-08T13:02:31.684Z,7.70
2019-01-08T13:03:31.691Z,5.90
2019-01-08T13:04:31.633Z,9.40
2019-01-08T13:05:31.633Z,7.50